sensor_id;sensor_type;location;lat;lon;timestamp;P1;durP1;ratioP1;P2;durP2;ratioP2
46377;SDS011;32083;47.360;9.650;2023-02-13T00:01:35;53.53;;;37.72;;
46377;SDS011;32083;47.360;9.650;2023-02-13T00:04:04;59.70;;;37.78;;
46377;SDS011;32083;47.360;9.650;2023-02-13T00:06:33;53.60;;;34.92;;
46377;SDS011;32083;47.360;9.650;2023-02-13T00:09:28;58.65;;;37.63;;
46377;SDS011;32083;47.360;9.650;2023-02-13T00:12:42;42.67;;;31.55;;
46377;SDS011;32083;47.360;9.650;2023-02-13T00:15:12;53.28;;;34.42;;
46377;SDS011;32083;47.360;9.650;2023-02-13T00:17:44;49.42;;;31.75;;
46377;SDS011;32083;47.360;9.650;2023-02-13T00:20:12;45.92;;;32.83;;
46377;SDS011;32083;47.360;9.650;2023-02-13T00:22:39;44.90;;;30.58;;
46377;SDS011;32083;47.360;9.650;2023-02-13T00:25:05;44.70;;;31.10;;
46377;SDS011;32083;47.360;9.650;2023-02-13T00:27:40;44.88;;;32.72;;
46377;SDS011;32083;47.360;9.650;2023-02-13T00:30:16;45.45;;;31.73;;
46377;SDS011;32083;47.360;9.650;2023-02-13T00:32:51;49.58;;;31.70;;
46377;SDS011;32083;47.360;9.650;2023-02-13T00:35:29;41.72;;;31.23;;
46377;SDS011;32083;47.360;9.650;2023-02-13T00:38:19;39.72;;;29.70;;
46377;SDS011;32083;47.360;9.650;2023-02-13T00:40:49;45.15;;;31.42;;
46377;SDS011;32083;47.360;9.650;2023-02-13T00:43:15;42.03;;;27.77;;
46377;SDS011;32083;47.360;9.650;2023-02-13T00:45:53;39.05;;;26.08;;
46377;SDS011;32083;47.360;9.650;2023-02-13T00:48:32;38.90;;;29.67;;
46377;SDS011;32083;47.360;9.650;2023-02-13T00:51:27;36.10;;;25.17;;
46377;SDS011;32083;47.360;9.650;2023-02-13T00:54:05;36.63;;;26.85;;
46377;SDS011;32083;47.360;9.650;2023-02-13T00:56:34;36.42;;;25.70;;
46377;SDS011;32083;47.360;9.650;2023-02-13T00:59:22;37.55;;;26.90;;
46377;SDS011;32083;47.360;9.650;2023-02-13T01:02:01;38.67;;;27.65;;
46377;SDS011;32083;47.360;9.650;2023-02-13T01:05:29;31.30;;;26.15;;
46377;SDS011;32083;47.360;9.650;2023-02-13T01:08:18;32.78;;;25.02;;
46377;SDS011;32083;47.360;9.650;2023-02-13T01:11:25;39.15;;;26.67;;
46377;SDS011;32083;47.360;9.650;2023-02-13T01:14:25;36.80;;;24.70;;
46377;SDS011;32083;47.360;9.650;2023-02-13T01:17:18;36.33;;;26.20;;
46377;SDS011;32083;47.360;9.650;2023-02-13T01:20:07;37.28;;;26.70;;
46377;SDS011;32083;47.360;9.650;2023-02-13T01:25:22;35.50;;;26.83;;
46377;SDS011;32083;47.360;9.650;2023-02-13T01:27:55;36.38;;;26.98;;
46377;SDS011;32083;47.360;9.650;2023-02-13T01:30:25;39.35;;;27.17;;
46377;SDS011;32083;47.360;9.650;2023-02-13T01:32:53;39.22;;;28.33;;
46377;SDS011;32083;47.360;9.650;2023-02-13T01:35:22;38.03;;;26.60;;
46377;SDS011;32083;47.360;9.650;2023-02-13T01:38:03;33.63;;;25.30;;
46377;SDS011;32083;47.360;9.650;2023-02-13T01:40:31;40.03;;;29.58;;
46377;SDS011;32083;47.360;9.650;2023-02-13T01:43:17;36.58;;;26.15;;
46377;SDS011;32083;47.360;9.650;2023-02-13T01:46:32;41.53;;;28.80;;
46377;SDS011;32083;47.360;9.650;2023-02-13T01:49:38;38.38;;;24.85;;
46377;SDS011;32083;47.360;9.650;2023-02-13T01:52:13;37.70;;;26.98;;
46377;SDS011;32083;47.360;9.650;2023-02-13T01:55:10;41.72;;;27.95;;
46377;SDS011;32083;47.360;9.650;2023-02-13T01:57:53;39.70;;;27.95;;
46377;SDS011;32083;47.360;9.650;2023-02-13T02:00:44;41.28;;;29.35;;
46377;SDS011;32083;47.360;9.650;2023-02-13T02:03:26;40.35;;;29.10;;
46377;SDS011;32083;47.360;9.650;2023-02-13T02:06:34;40.63;;;27.00;;
46377;SDS011;32083;47.360;9.650;2023-02-13T02:09:24;41.58;;;30.55;;
46377;SDS011;32083;47.360;9.650;2023-02-13T02:12:52;41.92;;;28.65;;
46377;SDS011;32083;47.360;9.650;2023-02-13T02:16:00;40.60;;;28.75;;
46377;SDS011;32083;47.360;9.650;2023-02-13T02:19:46;42.78;;;27.02;;
46377;SDS011;32083;47.360;9.650;2023-02-13T02:25:38;38.97;;;27.55;;
46377;SDS011;32083;47.360;9.650;2023-02-13T02:31:36;37.30;;;27.20;;
46377;SDS011;32083;47.360;9.650;2023-02-13T02:48:53;35.17;;;25.95;;
46377;SDS011;32083;47.360;9.650;2023-02-13T02:52:05;35.92;;;24.35;;
46377;SDS011;32083;47.360;9.650;2023-02-13T02:58:43;32.22;;;20.60;;
46377;SDS011;32083;47.360;9.650;2023-02-13T03:01:35;32.88;;;24.45;;
46377;SDS011;32083;47.360;9.650;2023-02-13T03:04:40;32.70;;;23.75;;
46377;SDS011;32083;47.360;9.650;2023-02-13T03:07:29;41.40;;;24.92;;
46377;SDS011;32083;47.360;9.650;2023-02-13T03:10:24;31.08;;;22.90;;
46377;SDS011;32083;47.360;9.650;2023-02-13T03:13:51;29.75;;;23.08;;
46377;SDS011;32083;47.360;9.650;2023-02-13T03:16:17;30.55;;;22.60;;
46377;SDS011;32083;47.360;9.650;2023-02-13T03:19:15;28.00;;;21.23;;
46377;SDS011;32083;47.360;9.650;2023-02-13T03:34:12;28.63;;;21.42;;
46377;SDS011;32083;47.360;9.650;2023-02-13T03:37:12;32.63;;;22.20;;
46377;SDS011;32083;47.360;9.650;2023-02-13T03:40:08;30.95;;;22.20;;
46377;SDS011;32083;47.360;9.650;2023-02-13T03:46:01;29.77;;;21.70;;
46377;SDS011;32083;47.360;9.650;2023-02-13T03:48:38;28.38;;;21.75;;
46377;SDS011;32083;47.360;9.650;2023-02-13T03:54:20;29.05;;;22.15;;
46377;SDS011;32083;47.360;9.650;2023-02-13T03:57:15;34.33;;;23.77;;
46377;SDS011;32083;47.360;9.650;2023-02-13T04:00:10;34.13;;;24.13;;
46377;SDS011;32083;47.360;9.650;2023-02-13T04:03:07;28.52;;;20.58;;
46377;SDS011;32083;47.360;9.650;2023-02-13T04:05:43;30.73;;;21.25;;
46377;SDS011;32083;47.360;9.650;2023-02-13T04:08:36;30.17;;;22.38;;
46377;SDS011;32083;47.360;9.650;2023-02-13T04:16:38;31.25;;;23.48;;
46377;SDS011;32083;47.360;9.650;2023-02-13T04:19:27;31.15;;;23.13;;
46377;SDS011;32083;47.360;9.650;2023-02-13T04:22:12;37.67;;;25.25;;
46377;SDS011;32083;47.360;9.650;2023-02-13T04:24:38;34.67;;;23.25;;
46377;SDS011;32083;47.360;9.650;2023-02-13T04:27:26;36.15;;;26.20;;
46377;SDS011;32083;47.360;9.650;2023-02-13T04:30:04;34.25;;;24.00;;
46377;SDS011;32083;47.360;9.650;2023-02-13T04:32:42;32.28;;;22.92;;
46377;SDS011;32083;47.360;9.650;2023-02-13T04:35:14;37.38;;;25.92;;
46377;SDS011;32083;47.360;9.650;2023-02-13T04:37:42;41.45;;;26.50;;
46377;SDS011;32083;47.360;9.650;2023-02-13T04:40:20;35.65;;;25.27;;
46377;SDS011;32083;47.360;9.650;2023-02-13T04:43:16;35.65;;;24.42;;
46377;SDS011;32083;47.360;9.650;2023-02-13T04:45:52;29.30;;;21.98;;
46377;SDS011;32083;47.360;9.650;2023-02-13T04:49:00;30.27;;;20.35;;
46377;SDS011;32083;47.360;9.650;2023-02-13T04:51:46;32.72;;;22.30;;
46377;SDS011;32083;47.360;9.650;2023-02-13T04:54:14;28.92;;;21.90;;
46377;SDS011;32083;47.360;9.650;2023-02-13T04:56:42;29.38;;;22.17;;
46377;SDS011;32083;47.360;9.650;2023-02-13T04:59:16;28.00;;;20.73;;
46377;SDS011;32083;47.360;9.650;2023-02-13T05:02:07;28.27;;;19.02;;
46377;SDS011;32083;47.360;9.650;2023-02-13T05:04:38;25.08;;;20.33;;
46377;SDS011;32083;47.360;9.650;2023-02-13T05:07:14;31.98;;;21.17;;
46377;SDS011;32083;47.360;9.650;2023-02-13T05:09:52;27.55;;;19.83;;
46377;SDS011;32083;47.360;9.650;2023-02-13T05:12:19;34.88;;;23.40;;
46377;SDS011;32083;47.360;9.650;2023-02-13T05:14:44;32.05;;;22.63;;
46377;SDS011;32083;47.360;9.650;2023-02-13T05:17:10;31.38;;;19.73;;
46377;SDS011;32083;47.360;9.650;2023-02-13T05:20:22;32.95;;;23.30;;
46377;SDS011;32083;47.360;9.650;2023-02-13T05:23:01;33.53;;;21.70;;
46377;SDS011;32083;47.360;9.650;2023-02-13T05:25:45;34.17;;;22.35;;
46377;SDS011;32083;47.360;9.650;2023-02-13T05:28:31;30.80;;;22.10;;
46377;SDS011;32083;47.360;9.650;2023-02-13T05:31:16;27.80;;;21.10;;
46377;SDS011;32083;47.360;9.650;2023-02-13T05:33:42;31.85;;;22.77;;
46377;SDS011;32083;47.360;9.650;2023-02-13T05:36:07;37.50;;;28.48;;
46377;SDS011;32083;47.360;9.650;2023-02-13T05:38:33;32.08;;;23.63;;
46377;SDS011;32083;47.360;9.650;2023-02-13T05:40:59;37.47;;;26.27;;
46377;SDS011;32083;47.360;9.650;2023-02-13T05:43:26;35.70;;;24.88;;
46377;SDS011;32083;47.360;9.650;2023-02-13T05:46:03;40.75;;;28.55;;
46377;SDS011;32083;47.360;9.650;2023-02-13T05:48:30;42.83;;;27.75;;
46377;SDS011;32083;47.360;9.650;2023-02-13T05:50:56;40.55;;;26.98;;
46377;SDS011;32083;47.360;9.650;2023-02-13T05:53:22;40.88;;;27.50;;
46377;SDS011;32083;47.360;9.650;2023-02-13T05:55:48;39.95;;;25.08;;
46377;SDS011;32083;47.360;9.650;2023-02-13T05:58:16;49.45;;;30.95;;
46377;SDS011;32083;47.360;9.650;2023-02-13T06:00:43;52.88;;;31.42;;
46377;SDS011;32083;47.360;9.650;2023-02-13T06:03:10;51.42;;;31.92;;
46377;SDS011;32083;47.360;9.650;2023-02-13T06:05:36;45.15;;;28.73;;
46377;SDS011;32083;47.360;9.650;2023-02-13T06:08:02;48.75;;;32.33;;
46377;SDS011;32083;47.360;9.650;2023-02-13T06:10:28;50.30;;;31.95;;
46377;SDS011;32083;47.360;9.650;2023-02-13T06:12:54;40.47;;;27.08;;
46377;SDS011;32083;47.360;9.650;2023-02-13T06:15:20;47.90;;;30.02;;
46377;SDS011;32083;47.360;9.650;2023-02-13T06:17:46;47.05;;;29.10;;
46377;SDS011;32083;47.360;9.650;2023-02-13T06:20:12;52.60;;;31.50;;
46377;SDS011;32083;47.360;9.650;2023-02-13T06:22:38;43.40;;;27.40;;
46377;SDS011;32083;47.360;9.650;2023-02-13T06:25:03;43.42;;;28.40;;
46377;SDS011;32083;47.360;9.650;2023-02-13T06:27:30;47.42;;;27.48;;
46377;SDS011;32083;47.360;9.650;2023-02-13T06:29:55;52.15;;;31.98;;
46377;SDS011;32083;47.360;9.650;2023-02-13T06:32:21;45.92;;;28.35;;
46377;SDS011;32083;47.360;9.650;2023-02-13T06:34:47;41.20;;;27.52;;
46377;SDS011;32083;47.360;9.650;2023-02-13T06:37:13;44.00;;;28.55;;
46377;SDS011;32083;47.360;9.650;2023-02-13T06:39:39;47.95;;;29.55;;
46377;SDS011;32083;47.360;9.650;2023-02-13T06:42:05;38.92;;;26.63;;
46377;SDS011;32083;47.360;9.650;2023-02-13T06:44:31;43.97;;;28.60;;
46377;SDS011;32083;47.360;9.650;2023-02-13T06:46:57;45.00;;;30.73;;
46377;SDS011;32083;47.360;9.650;2023-02-13T06:49:23;44.60;;;29.35;;
46377;SDS011;32083;47.360;9.650;2023-02-13T06:51:48;46.03;;;29.20;;
46377;SDS011;32083;47.360;9.650;2023-02-13T06:54:14;39.53;;;27.13;;
46377;SDS011;32083;47.360;9.650;2023-02-13T06:56:40;38.58;;;26.35;;
46377;SDS011;32083;47.360;9.650;2023-02-13T06:59:06;43.65;;;29.30;;
46377;SDS011;32083;47.360;9.650;2023-02-13T07:01:32;41.40;;;28.25;;
46377;SDS011;32083;47.360;9.650;2023-02-13T07:03:58;38.20;;;25.58;;
46377;SDS011;32083;47.360;9.650;2023-02-13T07:06:24;41.70;;;27.23;;
46377;SDS011;32083;47.360;9.650;2023-02-13T07:08:50;36.40;;;26.15;;
46377;SDS011;32083;47.360;9.650;2023-02-13T07:11:19;38.85;;;26.85;;
46377;SDS011;32083;47.360;9.650;2023-02-13T07:13:47;46.33;;;29.83;;
46377;SDS011;32083;47.360;9.650;2023-02-13T07:16:13;38.78;;;26.45;;
46377;SDS011;32083;47.360;9.650;2023-02-13T07:18:39;33.45;;;23.15;;
46377;SDS011;32083;47.360;9.650;2023-02-13T07:21:05;38.55;;;24.95;;
46377;SDS011;32083;47.360;9.650;2023-02-13T07:23:32;36.60;;;26.75;;
46377;SDS011;32083;47.360;9.650;2023-02-13T07:25:58;39.45;;;25.52;;
46377;SDS011;32083;47.360;9.650;2023-02-13T07:28:25;41.75;;;25.50;;
46377;SDS011;32083;47.360;9.650;2023-02-13T07:30:52;44.72;;;26.38;;
46377;SDS011;32083;47.360;9.650;2023-02-13T07:33:17;38.60;;;24.60;;
46377;SDS011;32083;47.360;9.650;2023-02-13T07:35:47;45.38;;;27.55;;
46377;SDS011;32083;47.360;9.650;2023-02-13T07:38:15;38.00;;;25.45;;
46377;SDS011;32083;47.360;9.650;2023-02-13T07:40:41;39.83;;;27.98;;
46377;SDS011;32083;47.360;9.650;2023-02-13T07:43:08;46.05;;;28.20;;
46377;SDS011;32083;47.360;9.650;2023-02-13T07:45:34;39.83;;;25.77;;
46377;SDS011;32083;47.360;9.650;2023-02-13T07:48:00;40.95;;;26.92;;
46377;SDS011;32083;47.360;9.650;2023-02-13T07:50:26;43.20;;;27.70;;
46377;SDS011;32083;47.360;9.650;2023-02-13T07:53:01;47.33;;;28.67;;
46377;SDS011;32083;47.360;9.650;2023-02-13T07:55:28;39.67;;;26.55;;
46377;SDS011;32083;47.360;9.650;2023-02-13T07:57:54;41.60;;;26.65;;
46377;SDS011;32083;47.360;9.650;2023-02-13T08:00:21;41.35;;;25.67;;
46377;SDS011;32083;47.360;9.650;2023-02-13T08:02:47;41.65;;;27.67;;
46377;SDS011;32083;47.360;9.650;2023-02-13T08:05:13;42.22;;;26.88;;
46377;SDS011;32083;47.360;9.650;2023-02-13T08:07:39;37.50;;;24.33;;
46377;SDS011;32083;47.360;9.650;2023-02-13T08:10:06;39.00;;;27.23;;
46377;SDS011;32083;47.360;9.650;2023-02-13T08:12:51;40.92;;;26.75;;
46377;SDS011;32083;47.360;9.650;2023-02-13T08:15:18;39.30;;;24.98;;
46377;SDS011;32083;47.360;9.650;2023-02-13T08:17:44;36.90;;;24.52;;
46377;SDS011;32083;47.360;9.650;2023-02-13T08:20:10;41.35;;;26.67;;
46377;SDS011;32083;47.360;9.650;2023-02-13T08:22:36;40.88;;;25.50;;
46377;SDS011;32083;47.360;9.650;2023-02-13T08:25:03;43.58;;;27.73;;
46377;SDS011;32083;47.360;9.650;2023-02-13T08:27:30;44.55;;;27.27;;
46377;SDS011;32083;47.360;9.650;2023-02-13T08:29:56;41.05;;;26.90;;
46377;SDS011;32083;47.360;9.650;2023-02-13T08:32:23;39.13;;;26.85;;
46377;SDS011;32083;47.360;9.650;2023-02-13T08:34:50;41.05;;;25.63;;
46377;SDS011;32083;47.360;9.650;2023-02-13T08:37:16;37.03;;;23.58;;
46377;SDS011;32083;47.360;9.650;2023-02-13T08:39:42;36.17;;;23.67;;
46377;SDS011;32083;47.360;9.650;2023-02-13T08:42:09;40.45;;;25.70;;
46377;SDS011;32083;47.360;9.650;2023-02-13T08:44:35;35.83;;;24.95;;
46377;SDS011;32083;47.360;9.650;2023-02-13T08:47:01;38.25;;;25.00;;
46377;SDS011;32083;47.360;9.650;2023-02-13T08:49:28;35.78;;;25.83;;
46377;SDS011;32083;47.360;9.650;2023-02-13T08:51:54;38.83;;;24.95;;
46377;SDS011;32083;47.360;9.650;2023-02-13T08:54:20;42.33;;;26.25;;
46377;SDS011;32083;47.360;9.650;2023-02-13T08:56:46;38.03;;;26.25;;
46377;SDS011;32083;47.360;9.650;2023-02-13T08:59:12;35.58;;;23.35;;
46377;SDS011;32083;47.360;9.650;2023-02-13T09:01:38;38.65;;;26.27;;
46377;SDS011;32083;47.360;9.650;2023-02-13T09:04:04;36.45;;;25.00;;
46377;SDS011;32083;47.360;9.650;2023-02-13T09:06:30;41.33;;;25.58;;
46377;SDS011;32083;47.360;9.650;2023-02-13T09:08:56;38.38;;;25.42;;
46377;SDS011;32083;47.360;9.650;2023-02-13T09:11:22;40.17;;;25.77;;
46377;SDS011;32083;47.360;9.650;2023-02-13T09:13:48;35.80;;;24.88;;
46377;SDS011;32083;47.360;9.650;2023-02-13T09:16:18;37.35;;;25.38;;
46377;SDS011;32083;47.360;9.650;2023-02-13T09:18:47;40.65;;;26.10;;
46377;SDS011;32083;47.360;9.650;2023-02-13T09:21:14;41.90;;;28.65;;
46377;SDS011;32083;47.360;9.650;2023-02-13T09:23:40;39.47;;;24.50;;
46377;SDS011;32083;47.360;9.650;2023-02-13T09:26:07;41.17;;;28.05;;
46377;SDS011;32083;47.360;9.650;2023-02-13T09:28:35;40.22;;;27.10;;
46377;SDS011;32083;47.360;9.650;2023-02-13T09:31:08;41.00;;;27.13;;
46377;SDS011;32083;47.360;9.650;2023-02-13T09:33:36;41.75;;;28.15;;
46377;SDS011;32083;47.360;9.650;2023-02-13T09:36:15;42.25;;;28.42;;
46377;SDS011;32083;47.360;9.650;2023-02-13T09:38:46;39.63;;;27.33;;
46377;SDS011;32083;47.360;9.650;2023-02-13T09:41:20;37.97;;;25.27;;
46377;SDS011;32083;47.360;9.650;2023-02-13T09:44:03;35.80;;;25.25;;
46377;SDS011;32083;47.360;9.650;2023-02-13T09:50:09;39.97;;;24.40;;
46377;SDS011;32083;47.360;9.650;2023-02-13T09:52:43;40.35;;;23.88;;
46377;SDS011;32083;47.360;9.650;2023-02-13T09:55:14;39.92;;;28.00;;
46377;SDS011;32083;47.360;9.650;2023-02-13T10:00:46;38.88;;;25.20;;
46377;SDS011;32083;47.360;9.650;2023-02-13T10:03:28;38.75;;;24.77;;
46377;SDS011;32083;47.360;9.650;2023-02-13T10:16:43;37.65;;;24.85;;
46377;SDS011;32083;47.360;9.650;2023-02-13T10:19:20;38.75;;;24.48;;
46377;SDS011;32083;47.360;9.650;2023-02-13T10:22:11;37.38;;;25.10;;
46377;SDS011;32083;47.360;9.650;2023-02-13T10:25:00;30.33;;;23.80;;
46377;SDS011;32083;47.360;9.650;2023-02-13T10:27:42;39.25;;;24.67;;
46377;SDS011;32083;47.360;9.650;2023-02-13T10:33:03;36.10;;;24.50;;
46377;SDS011;32083;47.360;9.650;2023-02-13T10:49:04;40.40;;;26.45;;
46377;SDS011;32083;47.360;9.650;2023-02-13T10:51:39;35.65;;;23.83;;
46377;SDS011;32083;47.360;9.650;2023-02-13T10:57:23;36.65;;;25.08;;
46377;SDS011;32083;47.360;9.650;2023-02-13T11:00:54;40.40;;;25.27;;
46377;SDS011;32083;47.360;9.650;2023-02-13T11:03:03;37.28;;;24.10;;
46377;SDS011;32083;47.360;9.650;2023-02-13T11:05:30;37.55;;;25.15;;
46377;SDS011;32083;47.360;9.650;2023-02-13T11:07:56;42.13;;;26.67;;
46377;SDS011;32083;47.360;9.650;2023-02-13T11:10:23;36.10;;;23.90;;
46377;SDS011;32083;47.360;9.650;2023-02-13T11:12:51;34.00;;;23.23;;
46377;SDS011;32083;47.360;9.650;2023-02-13T11:17:52;36.80;;;25.10;;
46377;SDS011;32083;47.360;9.650;2023-02-13T11:20:22;33.08;;;24.25;;
46377;SDS011;32083;47.360;9.650;2023-02-13T11:23:13;33.53;;;22.88;;
46377;SDS011;32083;47.360;9.650;2023-02-13T11:26:33;31.67;;;21.55;;
46377;SDS011;32083;47.360;9.650;2023-02-13T11:28:58;32.10;;;22.63;;
46377;SDS011;32083;47.360;9.650;2023-02-13T11:31:33;33.30;;;24.10;;
46377;SDS011;32083;47.360;9.650;2023-02-13T11:34:17;32.90;;;22.23;;
46377;SDS011;32083;47.360;9.650;2023-02-13T11:36:48;34.20;;;23.52;;
46377;SDS011;32083;47.360;9.650;2023-02-13T11:39:31;30.75;;;22.13;;
46377;SDS011;32083;47.360;9.650;2023-02-13T11:41:57;32.65;;;22.90;;
46377;SDS011;32083;47.360;9.650;2023-02-13T11:44:27;29.25;;;22.10;;
46377;SDS011;32083;47.360;9.650;2023-02-13T11:46:56;34.20;;;24.15;;
46377;SDS011;32083;47.360;9.650;2023-02-13T11:49:24;32.00;;;21.98;;
46377;SDS011;32083;47.360;9.650;2023-02-13T11:52:06;33.77;;;20.93;;
46377;SDS011;32083;47.360;9.650;2023-02-13T11:54:54;34.83;;;23.90;;
46377;SDS011;32083;47.360;9.650;2023-02-13T11:57:35;30.95;;;21.27;;
46377;SDS011;32083;47.360;9.650;2023-02-13T12:02:55;29.65;;;21.15;;
46377;SDS011;32083;47.360;9.650;2023-02-13T12:05:25;31.63;;;21.75;;
46377;SDS011;32083;47.360;9.650;2023-02-13T12:07:54;32.35;;;21.88;;
46377;SDS011;32083;47.360;9.650;2023-02-13T12:10:27;37.28;;;23.65;;
46377;SDS011;32083;47.360;9.650;2023-02-13T12:13:01;34.15;;;23.08;;
46377;SDS011;32083;47.360;9.650;2023-02-13T12:15:45;31.05;;;21.33;;
46377;SDS011;32083;47.360;9.650;2023-02-13T12:18:20;31.17;;;21.67;;
46377;SDS011;32083;47.360;9.650;2023-02-13T12:26:58;38.50;;;24.05;;
46377;SDS011;32083;47.360;9.650;2023-02-13T12:37:10;25.25;;;20.23;;
46377;SDS011;32083;47.360;9.650;2023-02-13T12:40:49;24.83;;;18.80;;
46377;SDS011;32083;47.360;9.650;2023-02-13T12:42:53;28.52;;;19.73;;
46377;SDS011;32083;47.360;9.650;2023-02-13T12:54:52;41.70;;;26.80;;
46377;SDS011;32083;47.360;9.650;2023-02-13T13:10:58;36.95;;;24.85;;
46377;SDS011;32083;47.360;9.650;2023-02-13T13:21:31;39.13;;;25.48;;
46377;SDS011;32083;47.360;9.650;2023-02-13T13:24:27;37.90;;;27.55;;
46377;SDS011;32083;47.360;9.650;2023-02-13T13:26:54;39.65;;;27.20;;
46377;SDS011;32083;47.360;9.650;2023-02-13T13:29:23;38.53;;;27.20;;
46377;SDS011;32083;47.360;9.650;2023-02-13T13:31:54;35.08;;;25.58;;
46377;SDS011;32083;47.360;9.650;2023-02-13T13:34:24;40.60;;;27.08;;
46377;SDS011;32083;47.360;9.650;2023-02-13T13:46:02;40.55;;;26.98;;
46377;SDS011;32083;47.360;9.650;2023-02-13T13:48:39;46.03;;;28.63;;
46377;SDS011;32083;47.360;9.650;2023-02-13T13:51:19;36.92;;;26.83;;
46377;SDS011;32083;47.360;9.650;2023-02-13T13:57:12;40.15;;;27.23;;
46377;SDS011;32083;47.360;9.650;2023-02-13T14:07:43;38.80;;;26.63;;
46377;SDS011;32083;47.360;9.650;2023-02-13T14:12:46;42.95;;;28.58;;
46377;SDS011;32083;47.360;9.650;2023-02-13T14:17:58;36.65;;;26.88;;
46377;SDS011;32083;47.360;9.650;2023-02-13T14:23:06;37.63;;;26.40;;
46377;SDS011;32083;47.360;9.650;2023-02-13T14:25:40;35.28;;;24.83;;
46377;SDS011;32083;47.360;9.650;2023-02-13T14:28:14;37.65;;;27.60;;
46377;SDS011;32083;47.360;9.650;2023-02-13T14:30:46;37.13;;;27.42;;
46377;SDS011;32083;47.360;9.650;2023-02-13T14:33:22;37.05;;;26.00;;
46377;SDS011;32083;47.360;9.650;2023-02-13T14:36:02;38.28;;;26.33;;
46377;SDS011;32083;47.360;9.650;2023-02-13T14:38:31;39.75;;;28.27;;
46377;SDS011;32083;47.360;9.650;2023-02-13T14:40:58;46.45;;;31.48;;
46377;SDS011;32083;47.360;9.650;2023-02-13T14:43:31;42.95;;;30.10;;
46377;SDS011;32083;47.360;9.650;2023-02-13T14:49:27;36.67;;;25.35;;
46377;SDS011;32083;47.360;9.650;2023-02-13T14:54:08;37.10;;;26.33;;
46377;SDS011;32083;47.360;9.650;2023-02-13T14:56:51;42.30;;;29.27;;
46377;SDS011;32083;47.360;9.650;2023-02-13T14:59:23;40.53;;;28.88;;
46377;SDS011;32083;47.360;9.650;2023-02-13T15:01:59;35.53;;;25.50;;
46377;SDS011;32083;47.360;9.650;2023-02-13T15:04:39;38.10;;;27.08;;
46377;SDS011;32083;47.360;9.650;2023-02-13T15:07:15;37.08;;;28.17;;
46377;SDS011;32083;47.360;9.650;2023-02-13T15:10:26;43.83;;;29.98;;
46377;SDS011;32083;47.360;9.650;2023-02-13T15:12:59;37.17;;;28.05;;
46377;SDS011;32083;47.360;9.650;2023-02-13T15:15:31;37.65;;;28.35;;
46377;SDS011;32083;47.360;9.650;2023-02-13T15:20:35;41.13;;;27.08;;
46377;SDS011;32083;47.360;9.650;2023-02-13T15:23:03;41.35;;;31.25;;
46377;SDS011;32083;47.360;9.650;2023-02-13T15:25:37;39.28;;;27.65;;
46377;SDS011;32083;47.360;9.650;2023-02-13T15:28:05;41.17;;;30.15;;
46377;SDS011;32083;47.360;9.650;2023-02-13T15:30:33;48.60;;;26.75;;
46377;SDS011;32083;47.360;9.650;2023-02-13T15:33:11;45.40;;;29.52;;
46377;SDS011;32083;47.360;9.650;2023-02-13T15:35:41;44.58;;;28.35;;
46377;SDS011;32083;47.360;9.650;2023-02-13T15:38:29;36.88;;;26.75;;
46377;SDS011;32083;47.360;9.650;2023-02-13T15:41:09;40.90;;;27.45;;
46377;SDS011;32083;47.360;9.650;2023-02-13T15:43:43;51.97;;;33.65;;
46377;SDS011;32083;47.360;9.650;2023-02-13T15:46:29;43.15;;;30.00;;
46377;SDS011;32083;47.360;9.650;2023-02-13T15:48:58;41.92;;;28.90;;
46377;SDS011;32083;47.360;9.650;2023-02-13T15:51:38;42.30;;;29.55;;
46377;SDS011;32083;47.360;9.650;2023-02-13T15:54:05;47.40;;;31.73;;
46377;SDS011;32083;47.360;9.650;2023-02-13T15:56:45;41.15;;;29.35;;
46377;SDS011;32083;47.360;9.650;2023-02-13T15:59:13;36.78;;;27.33;;
46377;SDS011;32083;47.360;9.650;2023-02-13T16:01:40;41.53;;;28.02;;
46377;SDS011;32083;47.360;9.650;2023-02-13T16:04:14;40.67;;;27.35;;
46377;SDS011;32083;47.360;9.650;2023-02-13T16:06:43;40.20;;;28.52;;
46377;SDS011;32083;47.360;9.650;2023-02-13T16:11:49;37.80;;;27.58;;
46377;SDS011;32083;47.360;9.650;2023-02-13T16:14:16;38.97;;;26.80;;
46377;SDS011;32083;47.360;9.650;2023-02-13T16:16:53;39.30;;;26.52;;
46377;SDS011;32083;47.360;9.650;2023-02-13T16:23:05;38.70;;;26.13;;
46377;SDS011;32083;47.360;9.650;2023-02-13T16:27:34;40.35;;;26.08;;
46377;SDS011;32083;47.360;9.650;2023-02-13T16:30:01;39.50;;;28.08;;
46377;SDS011;32083;47.360;9.650;2023-02-13T16:32:31;45.45;;;26.40;;
46377;SDS011;32083;47.360;9.650;2023-02-13T16:35:22;36.65;;;26.75;;
46377;SDS011;32083;47.360;9.650;2023-02-13T16:37:56;39.97;;;27.20;;
46377;SDS011;32083;47.360;9.650;2023-02-13T16:40:33;42.25;;;27.63;;
46377;SDS011;32083;47.360;9.650;2023-02-13T16:48:42;38.35;;;25.52;;
46377;SDS011;32083;47.360;9.650;2023-02-13T16:51:09;41.88;;;27.13;;
46377;SDS011;32083;47.360;9.650;2023-02-13T16:53:35;37.78;;;26.42;;
46377;SDS011;32083;47.360;9.650;2023-02-13T16:56:05;39.38;;;26.08;;
46377;SDS011;32083;47.360;9.650;2023-02-13T16:58:33;40.60;;;26.85;;
46377;SDS011;32083;47.360;9.650;2023-02-13T17:01:00;47.10;;;29.95;;
46377;SDS011;32083;47.360;9.650;2023-02-13T17:03:28;38.08;;;25.33;;
46377;SDS011;32083;47.360;9.650;2023-02-13T17:05:58;41.58;;;27.75;;
46377;SDS011;32083;47.360;9.650;2023-02-13T17:08:26;42.63;;;28.42;;
46377;SDS011;32083;47.360;9.650;2023-02-13T17:11:01;58.72;;;28.02;;
46377;SDS011;32083;47.360;9.650;2023-02-13T17:13:32;44.00;;;28.98;;
46377;SDS011;32083;47.360;9.650;2023-02-13T17:15:58;42.00;;;27.83;;
46377;SDS011;32083;47.360;9.650;2023-02-13T17:18:24;40.28;;;26.30;;
46377;SDS011;32083;47.360;9.650;2023-02-13T17:20:51;44.78;;;27.98;;
46377;SDS011;32083;47.360;9.650;2023-02-13T17:23:19;42.28;;;27.95;;
46377;SDS011;32083;47.360;9.650;2023-02-13T17:25:47;42.45;;;27.25;;
46377;SDS011;32083;47.360;9.650;2023-02-13T17:28:16;46.28;;;29.08;;
46377;SDS011;32083;47.360;9.650;2023-02-13T17:30:45;47.08;;;27.92;;
46377;SDS011;32083;47.360;9.650;2023-02-13T17:33:17;60.15;;;37.72;;
46377;SDS011;32083;47.360;9.650;2023-02-13T17:35:46;81.38;;;51.55;;
46377;SDS011;32083;47.360;9.650;2023-02-13T17:38:12;103.28;;;64.47;;
46377;SDS011;32083;47.360;9.650;2023-02-13T17:40:39;88.50;;;53.05;;
46377;SDS011;32083;47.360;9.650;2023-02-13T17:43:06;56.90;;;35.67;;
46377;SDS011;32083;47.360;9.650;2023-02-13T17:45:34;45.45;;;29.63;;
46377;SDS011;32083;47.360;9.650;2023-02-13T17:48:00;51.53;;;33.08;;
46377;SDS011;32083;47.360;9.650;2023-02-13T17:50:26;48.55;;;31.75;;
46377;SDS011;32083;47.360;9.650;2023-02-13T17:52:54;42.97;;;29.42;;
46377;SDS011;32083;47.360;9.650;2023-02-13T17:55:22;43.03;;;28.63;;
46377;SDS011;32083;47.360;9.650;2023-02-13T17:57:50;44.60;;;29.80;;
46377;SDS011;32083;47.360;9.650;2023-02-13T18:00:17;40.67;;;27.42;;
46377;SDS011;32083;47.360;9.650;2023-02-13T18:02:44;49.58;;;28.42;;
46377;SDS011;32083;47.360;9.650;2023-02-13T18:05:12;41.65;;;27.33;;
46377;SDS011;32083;47.360;9.650;2023-02-13T18:07:40;41.53;;;27.45;;
46377;SDS011;32083;47.360;9.650;2023-02-13T18:10:09;44.97;;;28.00;;
46377;SDS011;32083;47.360;9.650;2023-02-13T18:12:40;44.92;;;30.42;;
46377;SDS011;32083;47.360;9.650;2023-02-13T18:15:07;50.15;;;29.65;;